sensor_id;sensor_type;location;lat;lon;timestamp;pressure;altitude;pressure_sealevel;temperature;humidity
46291;BME280;32023;44.444;26.006;2024-02-26T00:00:36;100109.56;;;9.38;nan
46291;BME280;32023;44.444;26.006;2024-02-26T00:03:44;100104.28;;;9.32;nan
46291;BME280;32023;44.444;26.006;2024-02-26T00:06:35;100102.06;;;9.29;nan
46291;BME280;32023;44.444;26.006;2024-02-26T00:09:40;100106.41;;;9.25;nan
46291;BME280;32023;44.444;26.006;2024-02-26T00:12:22;100103.03;;;9.17;nan
46291;BME280;32023;44.444;26.006;2024-02-26T00:15:30;100101.06;;;9.13;nan
46291;BME280;32023;44.444;26.006;2024-02-26T00:18:23;100103.22;;;9.11;nan
46291;BME280;32023;44.444;26.006;2024-02-26T00:21:21;100097.38;;;9.02;nan
46291;BME280;32023;44.444;26.006;2024-02-26T00:23:54;100093.78;;;9.02;nan
46291;BME280;32023;44.444;26.006;2024-02-26T00:29:04;100096.00;;;9.05;nan
46291;BME280;32023;44.444;26.006;2024-02-26T00:31:58;100102.25;;;9.00;nan
46291;BME280;32023;44.444;26.006;2024-02-26T00:34:38;100091.22;;;8.95;nan
46291;BME280;32023;44.444;26.006;2024-02-26T00:37:23;100088.72;;;8.94;nan
46291;BME280;32023;44.444;26.006;2024-02-26T00:40:06;100092.31;;;8.94;nan
46291;BME280;32023;44.444;26.006;2024-02-26T00:42:42;100090.56;;;8.88;nan
46291;BME280;32023;44.444;26.006;2024-02-26T00:45:29;100087.72;;;8.78;nan
46291;BME280;32023;44.444;26.006;2024-02-26T00:48:09;100078.06;;;8.76;nan
46291;BME280;32023;44.444;26.006;2024-02-26T00:50:43;100078.06;;;8.76;nan
46291;BME280;32023;44.444;26.006;2024-02-26T00:53:19;100085.19;;;8.77;nan
46291;BME280;32023;44.444;26.006;2024-02-26T00:55:48;100076.41;;;8.75;nan
46291;BME280;32023;44.444;26.006;2024-02-26T00:58:25;100071.75;;;8.75;nan
46291;BME280;32023;44.444;26.006;2024-02-26T01:01:00;100078.06;;;8.76;nan
46291;BME280;32023;44.444;26.006;2024-02-26T01:03:54;100077.47;;;8.74;nan
46291;BME280;32023;44.444;26.006;2024-02-26T01:06:37;100067.25;;;8.69;nan
46291;BME280;32023;44.444;26.006;2024-02-26T01:09:14;100065.34;;;8.69;nan
46291;BME280;32023;44.444;26.006;2024-02-26T01:11:50;100057.38;;;8.68;nan
46291;BME280;32023;44.444;26.006;2024-02-26T01:14:20;100060.06;;;8.63;nan
46291;BME280;32023;44.444;26.006;2024-02-26T01:16:48;100056.78;;;8.66;nan
46291;BME280;32023;44.444;26.006;2024-02-26T01:19:22;100059.50;;;8.61;nan
46291;BME280;32023;44.444;26.006;2024-02-26T01:21:48;100058.03;;;8.53;nan
46291;BME280;32023;44.444;26.006;2024-02-26T01:24:22;100050.28;;;8.50;nan
46291;BME280;32023;44.444;26.006;2024-02-26T01:27:02;100050.28;;;8.50;nan
46291;BME280;32023;44.444;26.006;2024-02-26T01:29:34;100042.63;;;8.52;nan
46291;BME280;32023;44.444;26.006;2024-02-26T01:32:14;100039.28;;;8.50;nan
46291;BME280;32023;44.444;26.006;2024-02-26T01:34:47;100051.38;;;8.49;nan
46291;BME280;32023;44.444;26.006;2024-02-26T01:37:16;100054.94;;;8.50;nan
46291;BME280;32023;44.444;26.006;2024-02-26T01:39:50;100054.69;;;8.51;nan
46291;BME280;32023;44.444;26.006;2024-02-26T01:42:21;100056.66;;;8.56;nan
46291;BME280;32023;44.444;26.006;2024-02-26T01:44:50;100052.53;;;8.53;nan
46291;BME280;32023;44.444;26.006;2024-02-26T01:47:17;100044.28;;;8.53;nan
46291;BME280;32023;44.444;26.006;2024-02-26T01:49:59;100052.44;;;8.48;nan
46291;BME280;32023;44.444;26.006;2024-02-26T01:52:26;100056.88;;;8.49;nan
46291;BME280;32023;44.444;26.006;2024-02-26T01:58:35;100055.19;;;8.48;nan
46291;BME280;32023;44.444;26.006;2024-02-26T02:01:05;100054.88;;;8.45;nan
46291;BME280;32023;44.444;26.006;2024-02-26T02:06:37;100055.06;;;8.38;nan
46291;BME280;32023;44.444;26.006;2024-02-26T02:09:40;100051.16;;;8.34;nan
46291;BME280;32023;44.444;26.006;2024-02-26T02:19:34;100061.94;;;8.24;nan
46291;BME280;32023;44.444;26.006;2024-02-26T02:22:17;100067.94;;;8.21;nan
46291;BME280;32023;44.444;26.006;2024-02-26T02:27:58;100055.25;;;8.15;nan
46291;BME280;32023;44.444;26.006;2024-02-26T02:30:37;100053.00;;;8.12;nan
46291;BME280;32023;44.444;26.006;2024-02-26T02:33:27;100065.28;;;8.09;nan
46291;BME280;32023;44.444;26.006;2024-02-26T02:39:21;100080.34;;;8.07;nan
46291;BME280;32023;44.444;26.006;2024-02-26T02:42:01;100073.09;;;8.01;nan
46291;BME280;32023;44.444;26.006;2024-02-26T02:44:48;100082.44;;;8.00;nan
46291;BME280;32023;44.444;26.006;2024-02-26T02:51:06;100080.66;;;7.94;nan
46291;BME280;32023;44.444;26.006;2024-02-26T02:54:05;100081.50;;;7.94;nan
46291;BME280;32023;44.444;26.006;2024-02-26T02:56:31;100092.13;;;7.91;nan
46291;BME280;32023;44.444;26.006;2024-02-26T03:02:26;100085.47;;;7.87;nan
46291;BME280;32023;44.444;26.006;2024-02-26T03:05:21;100094.31;;;7.89;nan
46291;BME280;32023;44.444;26.006;2024-02-26T03:08:17;100090.13;;;7.86;nan
46291;BME280;32023;44.444;26.006;2024-02-26T03:18:15;100077.09;;;7.77;nan
46291;BME280;32023;44.444;26.006;2024-02-26T03:20:47;100071.78;;;7.70;nan
46291;BME280;32023;44.444;26.006;2024-02-26T03:26:37;100075.59;;;7.69;nan
46291;BME280;32023;44.444;26.006;2024-02-26T03:29:19;100068.72;;;7.66;nan
46291;BME280;32023;44.444;26.006;2024-02-26T03:31:52;100072.53;;;7.65;nan
46291;BME280;32023;44.444;26.006;2024-02-26T03:37:43;100080.56;;;7.55;nan
46291;BME280;32023;44.444;26.006;2024-02-26T03:40:23;100081.66;;;7.54;nan
46291;BME280;32023;44.444;26.006;2024-02-26T03:42:57;100084.13;;;7.56;nan
46291;BME280;32023;44.444;26.006;2024-02-26T03:45:40;100088.31;;;7.58;nan
46291;BME280;32023;44.444;26.006;2024-02-26T03:48:10;100088.44;;;7.52;nan
46291;BME280;32023;44.444;26.006;2024-02-26T03:50:43;100089.88;;;7.54;nan
46291;BME280;32023;44.444;26.006;2024-02-26T03:53:12;100088.44;;;7.52;nan
46291;BME280;32023;44.444;26.006;2024-02-26T03:55:48;100093.09;;;7.51;nan
46291;BME280;32023;44.444;26.006;2024-02-26T03:58:27;100090.09;;;7.53;nan
46291;BME280;32023;44.444;26.006;2024-02-26T04:01:15;100095.00;;;7.51;nan
46291;BME280;32023;44.444;26.006;2024-02-26T04:03:54;100101.06;;;7.53;nan
46291;BME280;32023;44.444;26.006;2024-02-26T04:06:48;100094.75;;;7.52;nan
46291;BME280;32023;44.444;26.006;2024-02-26T04:09:26;100085.47;;;7.53;nan
46291;BME280;32023;44.444;26.006;2024-02-26T04:12:17;100090.94;;;7.53;nan
46291;BME280;32023;44.444;26.006;2024-02-26T04:15:13;100094.75;;;7.52;nan
46291;BME280;32023;44.444;26.006;2024-02-26T04:17:40;100089.28;;;7.52;nan
46291;BME280;32023;44.444;26.006;2024-02-26T04:20:07;100089.19;;;7.47;nan
46291;BME280;32023;44.444;26.006;2024-02-26T04:25:44;100089.94;;;7.43;nan
46291;BME280;32023;44.444;26.006;2024-02-26T04:28:21;100093.97;;;7.40;nan
46291;BME280;32023;44.444;26.006;2024-02-26T04:31:00;100095.91;;;7.40;nan
46291;BME280;32023;44.444;26.006;2024-02-26T04:33:37;100093.97;;;7.40;nan
46291;BME280;32023;44.444;26.006;2024-02-26T04:36:13;100095.91;;;7.40;nan
46291;BME280;32023;44.444;26.006;2024-02-26T04:38:48;100054.97;;;7.05;nan
46291;BME280;32023;44.444;26.006;2024-02-26T04:41:25;100098.69;;;7.28;nan
46291;BME280;32023;44.444;26.006;2024-02-26T04:43:57;100094.84;;;7.29;nan
46291;BME280;32023;44.444;26.006;2024-02-26T04:46:31;100089.38;;;7.29;nan
46291;BME280;32023;44.444;26.006;2024-02-26T04:49:08;100094.28;;;7.27;nan
46291;BME280;32023;44.444;26.006;2024-02-26T04:51:37;100095.97;;;7.28;nan
46291;BME280;32023;44.444;26.006;2024-02-26T04:54:11;100094.94;;;7.17;nan
46291;BME280;32023;44.444;26.006;2024-02-26T04:56:38;100098.59;;;7.23;nan
46291;BME280;32023;44.444;26.006;2024-02-26T04:59:04;100097.19;;;7.20;nan
46291;BME280;32023;44.444;26.006;2024-02-26T05:01:33;100103.16;;;7.17;nan
46291;BME280;32023;44.444;26.006;2024-02-26T05:04:02;100108.38;;;7.19;nan
46291;BME280;32023;44.444;26.006;2024-02-26T05:06:37;100103.38;;;7.16;nan
46291;BME280;32023;44.444;26.006;2024-02-26T05:09:10;100094.31;;;7.15;nan
46291;BME280;32023;44.444;26.006;2024-02-26T05:11:39;100101.63;;;7.10;nan
46291;BME280;32023;44.444;26.006;2024-02-26T05:14:05;100099.47;;;7.12;nan
46291;BME280;32023;44.444;26.006;2024-02-26T05:16:34;100095.56;;;7.08;nan
46291;BME280;32023;44.444;26.006;2024-02-26T05:19:16;100098.63;;;7.11;nan
46291;BME280;32023;44.444;26.006;2024-02-26T05:21:45;100101.63;;;7.10;nan
46291;BME280;32023;44.444;26.006;2024-02-26T05:24:18;100106.28;;;7.09;nan
46291;BME280;32023;44.444;26.006;2024-02-26T05:26:57;100117.56;;;7.13;nan
46291;BME280;32023;44.444;26.006;2024-02-26T05:29:30;100115.41;;;7.15;nan
46291;BME280;32023;44.444;26.006;2024-02-26T05:31:57;100116.00;;;7.17;nan
46291;BME280;32023;44.444;26.006;2024-02-26T05:34:23;100119.31;;;7.19;nan
46291;BME280;32023;44.444;26.006;2024-02-26T05:36:50;100123.00;;;7.24;nan
46291;BME280;32023;44.444;26.006;2024-02-26T05:39:20;100129.88;;;7.27;nan
46291;BME280;32023;44.444;26.006;2024-02-26T05:41:55;100117.38;;;7.31;nan
46291;BME280;32023;44.444;26.006;2024-02-26T05:44:36;100134.28;;;7.28;nan
46291;BME280;32023;44.444;26.006;2024-02-26T05:47:22;100150.97;;;7.26;nan
46291;BME280;32023;44.444;26.006;2024-02-26T05:49:57;100153.81;;;7.32;nan
46291;BME280;32023;44.444;26.006;2024-02-26T05:52:49;100139.84;;;7.33;nan
46291;BME280;32023;44.444;26.006;2024-02-26T05:58:58;100164.63;;;7.38;nan
46291;BME280;32023;44.444;26.006;2024-02-26T06:01:31;100167.19;;;7.45;nan
46291;BME280;32023;44.444;26.006;2024-02-26T06:07:04;100164.22;;;7.46;nan
46291;BME280;32023;44.444;26.006;2024-02-26T06:09:46;100154.84;;;7.42;nan
46291;BME280;32023;44.444;26.006;2024-02-26T06:15:51;100160.88;;;7.44;nan
46291;BME280;32023;44.444;26.006;2024-02-26T06:18:42;100175.38;;;7.56;nan
46291;BME280;32023;44.444;26.006;2024-02-26T06:21:44;100161.19;;;7.59;nan
46291;BME280;32023;44.444;26.006;2024-02-26T06:24:37;100181.53;;;7.63;nan
46291;BME280;32023;44.444;26.006;2024-02-26T06:27:40;100187.47;;;7.72;nan
46291;BME280;32023;44.444;26.006;2024-02-26T06:30:10;100181.75;;;7.73;nan
46291;BME280;32023;44.444;26.006;2024-02-26T06:32:46;100179.84;;;7.74;nan
46291;BME280;32023;44.444;26.006;2024-02-26T06:35:21;100178.50;;;7.77;nan
46291;BME280;32023;44.444;26.006;2024-02-26T06:37:57;100182.94;;;7.78;nan
46291;BME280;32023;44.444;26.006;2024-02-26T06:40:26;100188.81;;;7.86;nan
46291;BME280;32023;44.444;26.006;2024-02-26T06:42:55;100192.41;;;7.87;nan
46291;BME280;32023;44.444;26.006;2024-02-26T06:45:29;100200.22;;;7.95;nan
46291;BME280;32023;44.444;26.006;2024-02-26T06:48:08;100204.63;;;7.96;nan
46291;BME280;32023;44.444;26.006;2024-02-26T06:50:46;100202.34;;;8.04;nan
46291;BME280;32023;44.444;26.006;2024-02-26T06:53:15;100194.19;;;8.09;nan
46291;BME280;32023;44.444;26.006;2024-02-26T06:55:51;100203.66;;;8.18;nan
46291;BME280;32023;44.444;26.006;2024-02-26T06:58:25;100211.50;;;8.27;nan
46291;BME280;32023;44.444;26.006;2024-02-26T07:01:28;100205.53;;;8.30;nan
46291;BME280;32023;44.444;26.006;2024-02-26T07:04:20;100194.56;;;8.30;nan
46291;BME280;32023;44.444;26.006;2024-02-26T07:07:07;100205.69;;;8.40;nan
46291;BME280;32023;44.444;26.006;2024-02-26T07:09:48;100206.53;;;8.40;nan
46291;BME280;32023;44.444;26.006;2024-02-26T07:12:36;100208.59;;;8.50;nan
46291;BME280;32023;44.444;26.006;2024-02-26T07:15:07;100206.34;;;8.63;nan
46291;BME280;32023;44.444;26.006;2024-02-26T07:20:57;100223.81;;;8.91;nan
46291;BME280;32023;44.444;26.006;2024-02-26T07:23:42;100212.19;;;9.05;nan
46291;BME280;32023;44.444;26.006;2024-02-26T07:26:22;100207.75;;;9.21;nan
46291;BME280;32023;44.444;26.006;2024-02-26T07:29:06;100200.59;;;9.20;nan
46291;BME280;32023;44.444;26.006;2024-02-26T07:31:36;100209.44;;;9.49;nan
46291;BME280;32023;44.444;26.006;2024-02-26T07:34:26;100229.78;;;9.70;nan
46291;BME280;32023;44.444;26.006;2024-02-26T07:37:19;100214.84;;;9.87;nan
46291;BME280;32023;44.444;26.006;2024-02-26T07:39:48;100206.69;;;9.97;nan
46291;BME280;32023;44.444;26.006;2024-02-26T07:46:26;100196.66;;;10.35;nan
46291;BME280;32023;44.444;26.006;2024-02-26T07:49:09;100211.44;;;10.60;nan
46291;BME280;32023;44.444;26.006;2024-02-26T07:51:40;100204.63;;;10.73;nan
46291;BME280;32023;44.444;26.006;2024-02-26T07:54:10;100194.59;;;10.94;nan
46291;BME280;32023;44.444;26.006;2024-02-26T07:59:36;100209.16;;;11.41;nan
46291;BME280;32023;44.444;26.006;2024-02-26T08:02:11;100210.06;;;11.57;nan
46291;BME280;32023;44.444;26.006;2024-02-26T08:04:44;100211.00;;;11.83;nan
46291;BME280;32023;44.444;26.006;2024-02-26T08:07:13;100206.63;;;12.02;nan
46291;BME280;32023;44.444;26.006;2024-02-26T08:09:54;100209.44;;;12.22;nan
46291;BME280;32023;44.444;26.006;2024-02-26T08:12:24;100201.16;;;12.42;nan
46291;BME280;32023;44.444;26.006;2024-02-26T08:14:51;100201.16;;;12.52;nan
46291;BME280;32023;44.444;26.006;2024-02-26T08:17:24;100196.19;;;12.65;nan
46291;BME280;32023;44.444;26.006;2024-02-26T08:22:53;100199.66;;;13.26;nan
46291;BME280;32023;44.444;26.006;2024-02-26T08:25:23;100193.50;;;13.49;nan
46291;BME280;32023;44.444;26.006;2024-02-26T08:28:12;100201.72;;;13.64;nan
46291;BME280;32023;44.444;26.006;2024-02-26T08:31:17;100204.47;;;13.69;nan
46291;BME280;32023;44.444;26.006;2024-02-26T09:59:53;100185.72;;;22.80;nan
46291;BME280;32023;44.444;26.006;2024-02-26T10:15:13;100170.06;;;26.72;nan
46291;BME280;32023;44.444;26.006;2024-02-26T13:41:27;100087.44;;;19.48;nan
46291;BME280;32023;44.444;26.006;2024-02-26T13:44:24;100091.44;;;19.24;nan
46291;BME280;32023;44.444;26.006;2024-02-26T17:12:03;100254.44;;;13.03;nan
46291;BME280;32023;44.444;26.006;2024-02-26T17:21:47;100268.84;;;12.75;nan
46291;BME280;32023;44.444;26.006;2024-02-26T17:50:25;100316.41;;;11.85;nan
46291;BME280;32023;44.444;26.006;2024-02-26T18:19:37;100354.94;;;10.96;nan
46291;BME280;32023;44.444;26.006;2024-02-26T18:22:36;100358.44;;;10.86;nan
46291;BME280;32023;44.444;26.006;2024-02-26T18:25:55;100227.25;;;9.90;nan
46291;BME280;32023;44.444;26.006;2024-02-26T18:39:25;100383.63;;;10.46;nan
46291;BME280;32023;44.444;26.006;2024-02-26T18:41:57;100393.47;;;10.37;nan
46291;BME280;32023;44.444;26.006;2024-02-26T18:44:44;100389.56;;;10.33;nan
46291;BME280;32023;44.444;26.006;2024-02-26T18:51:13;100401.53;;;10.22;nan
46291;BME280;32023;44.444;26.006;2024-02-26T18:54:04;100410.44;;;10.12;nan
46291;BME280;32023;44.444;26.006;2024-02-26T19:00:09;100427.44;;;10.04;nan
46291;BME280;32023;44.444;26.006;2024-02-26T19:02:51;100406.63;;;9.92;nan
46291;BME280;32023;44.444;26.006;2024-02-26T19:06:10;100409.72;;;9.79;nan
46291;BME280;32023;44.444;26.006;2024-02-26T19:09:28;100429.75;;;9.74;nan
46291;BME280;32023;44.444;26.006;2024-02-26T19:12:20;100412.00;;;9.65;nan
46291;BME280;32023;44.444;26.006;2024-02-26T19:15:21;100430.28;;;9.54;nan
46291;BME280;32023;44.444;26.006;2024-02-26T19:25:06;100454.09;;;9.32;nan
46291;BME280;32023;44.444;26.006;2024-02-26T19:31:57;100459.16;;;9.24;nan
46291;BME280;32023;44.444;26.006;2024-02-26T19:41:31;100457.00;;;9.09;nan
46291;BME280;32023;44.444;26.006;2024-02-26T19:50:42;100483.56;;;8.92;nan
46291;BME280;32023;44.444;26.006;2024-02-26T19:53:34;100479.06;;;8.86;nan
46291;BME280;32023;44.444;26.006;2024-02-26T19:56:45;100484.47;;;8.81;nan
46291;BME280;32023;44.444;26.006;2024-02-26T20:10:14;100493.28;;;8.54;nan
46291;BME280;32023;44.444;26.006;2024-02-26T20:13:16;100502.59;;;8.53;nan
46291;BME280;32023;44.444;26.006;2024-02-26T20:19:46;100496.88;;;8.43;nan
46291;BME280;32023;44.444;26.006;2024-02-26T20:29:29;100504.53;;;8.41;nan
46291;BME280;32023;44.444;26.006;2024-02-26T20:36:13;100505.03;;;8.27;nan
46291;BME280;32023;44.444;26.006;2024-02-26T22:01:44;100596.06;;;7.70;nan
46291;BME280;32023;44.444;26.006;2024-02-26T22:04:47;100595.63;;;7.73;nan
46291;BME280;32023;44.444;26.006;2024-02-26T22:11:21;100596.47;;;7.74;nan
46291;BME280;32023;44.444;26.006;2024-02-26T22:17:16;100594.78;;;7.73;nan
46291;BME280;32023;44.444;26.006;2024-02-26T22:19:59;100593.47;;;7.75;nan
46291;BME280;32023;44.444;26.006;2024-02-26T22:22:43;100597.28;;;7.74;nan
46291;BME280;32023;44.444;26.006;2024-02-26T22:25:25;100590.59;;;7.70;nan
46291;BME280;32023;44.444;26.006;2024-02-26T22:27:57;100590.59;;;7.70;nan
46291;BME280;32023;44.444;26.006;2024-02-26T22:31:15;100590.59;;;7.70;nan
46291;BME280;32023;44.444;26.006;2024-02-26T22:34:12;100590.00;;;7.68;nan
46291;BME280;32023;44.444;26.006;2024-02-26T22:36:47;100588.09;;;7.69;nan
46291;BME280;32023;44.444;26.006;2024-02-26T22:39:30;100581.78;;;7.68;nan
46291;BME280;32023;44.444;26.006;2024-02-26T22:42:17;100584.31;;;7.70;nan
46291;BME280;32023;44.444;26.006;2024-02-26T22:45:04;100540.03;;;7.43;nan
46291;BME280;32023;44.444;26.006;2024-02-26T22:47:38;100575.59;;;7.73;nan
46291;BME280;32023;44.444;26.006;2024-02-26T22:50:14;100572.38;;;7.76;nan
46291;BME280;32023;44.444;26.006;2024-02-26T22:56:26;100584.66;;;7.73;nan
46291;BME280;32023;44.444;26.006;2024-02-26T22:59:16;100579.75;;;7.75;nan
46291;BME280;32023;44.444;26.006;2024-02-26T23:02:01;100578.69;;;7.77;nan
46291;BME280;32023;44.444;26.006;2024-02-26T23:04:38;100565.56;;;7.79;nan
46291;BME280;32023;44.444;26.006;2024-02-26T23:07:30;100578.94;;;7.87;nan
46291;BME280;32023;44.444;26.006;2024-02-26T23:10:05;100590.03;;;7.92;nan
46291;BME280;32023;44.444;26.006;2024-02-26T23:12:56;100596.38;;;7.92;nan
46291;BME280;32023;44.444;26.006;2024-02-26T23:15:26;100598.75;;;7.89;nan
46291;BME280;32023;44.444;26.006;2024-02-26T23:18:13;100598.28;;;7.92;nan
46291;BME280;32023;44.444;26.006;2024-02-26T23:20:55;100614.47;;;7.93;nan
46291;BME280;32023;44.444;26.006;2024-02-26T23:23:24;100600.88;;;7.98;nan
46291;BME280;32023;44.444;26.006;2024-02-26T23:25:53;100609.97;;;7.99;nan
46291;BME280;32023;44.444;26.006;2024-02-26T23:28:34;100611.16;;;8.03;nan
46291;BME280;32023;44.444;26.006;2024-02-26T23:31:18;100611.16;;;8.03;nan
46291;BME280;32023;44.444;26.006;2024-02-26T23:34:16;100624.66;;;8.04;nan
46291;BME280;32023;44.444;26.006;2024-02-26T23:36:50;100622.84;;;8.10;nan
46291;BME280;32023;44.444;26.006;2024-02-26T23:39:53;100630.47;;;8.19;nan
46291;BME280;32023;44.444;26.006;2024-02-26T23:42:48;100627.38;;;8.16;nan
46291;BME280;32023;44.444;26.006;2024-02-26T23:45:25;100624.41;;;8.17;nan
46291;BME280;32023;44.444;26.006;2024-02-26T23:47:51;100630.25;;;8.21;nan
46291;BME280;32023;44.444;26.006;2024-02-26T23:50:41;100635.16;;;8.19;nan
46291;BME280;32023;44.444;26.006;2024-02-26T23:53:10;100639.09;;;8.23;nan
46291;BME280;32023;44.444;26.006;2024-02-26T23:55:48;100630.84;;;8.23;nan
46291;BME280;32023;44.444;26.006;2024-02-26T23:58:20;100645.38;;;8.23;nan
